Terminal Aerodrome Forecast
Issued by NWS Tulsa, OK

Home | Current Version | Previous Version | Text Only | Print | Product List | Glossary On
Versions: 1 2 3 4 5 6 7 8 9 10 11 12 13 14 15 16
000
FTUS44 KTSA 252300
TAFFSM
TAF
KFSM 252333Z 2600/2624 VRB03KT P6SM SKC
     FM260900 07003KT 3SM BR SCT002
      TEMPO 2610/2614 3/4SM BR BKN001
     FM261500 08005KT P6SM SKC
     FM261800 21008KT P6SM SKC=

USA.gov is the U.S. government's official web portal to all federal, state and local government web resources and services.